createdAt,value
2022-08-14T00:01:11.545Z,17.48
2022-08-14T00:03:42.879Z,18.83
2022-08-14T00:06:25.824Z,25.17
2022-08-14T00:08:59.590Z,23.92
2022-08-14T00:11:32.197Z,21.08
2022-08-14T00:14:02.816Z,21.58
2022-08-14T00:16:41.009Z,20.15
2022-08-14T00:19:19.497Z,23.02
2022-08-14T00:21:51.417Z,20.95
2022-08-14T00:24:28.455Z,18.38
2022-08-14T00:27:02.317Z,19.20
2022-08-14T00:29:40.438Z,19.85
2022-08-14T00:32:50.130Z,19.85
2022-08-14T00:35:02.461Z,20.95
2022-08-14T00:37:32.684Z,21.02
2022-08-14T00:40:02.748Z,20.45
2022-08-14T00:42:54.945Z,18.90
2022-08-14T00:45:27.499Z,23.85
2022-08-14T00:48:00.342Z,26.73
2022-08-14T00:50:31.146Z,30.13
2022-08-14T00:53:01.973Z,31.60
2022-08-14T00:55:31.858Z,28.67
2022-08-14T00:58:28.024Z,33.15
2022-08-14T01:01:04.504Z,41.38
2022-08-14T01:03:37.585Z,50.58
2022-08-14T01:06:09.171Z,55.65
2022-08-14T01:11:31.713Z,65.60
2022-08-14T01:14:25.596Z,51.42
2022-08-14T01:16:57.036Z,57.83
2022-08-14T01:19:41.274Z,63.63
2022-08-14T01:22:13.024Z,54.63
2022-08-14T01:24:43.627Z,45.80
2022-08-14T01:27:18.218Z,39.17
2022-08-14T01:30:01.112Z,33.05
2022-08-14T01:32:42.676Z,29.95
2022-08-14T01:35:19.619Z,31.55
2022-08-14T01:38:03.639Z,27.88
2022-08-14T01:40:41.093Z,29.75
2022-08-14T01:43:15.366Z,25.17
2022-08-14T01:46:06.587Z,22.45
2022-08-14T01:48:38.329Z,23.13
2022-08-14T01:51:18.698Z,23.42
2022-08-14T01:53:55.316Z,21.83
2022-08-14T01:56:33.139Z,26.50
2022-08-14T01:59:09.720Z,23.00
2022-08-14T02:01:41.944Z,26.83
2022-08-14T02:04:54.668Z,28.35
2022-08-14T02:07:15.784Z,24.52
2022-08-14T02:09:55.810Z,29.75
2022-08-14T02:12:29.440Z,27.05
2022-08-14T02:15:01.512Z,22.92
2022-08-14T02:17:35.762Z,22.42
2022-08-14T02:20:08.096Z,22.45
2022-08-14T02:22:47.923Z,23.90
2022-08-14T02:25:19.749Z,27.20
2022-08-14T02:28:24.890Z,26.83
2022-08-14T02:30:40.665Z,29.85
2022-08-14T02:35:43.140Z,28.52
2022-08-14T02:38:29.537Z,26.33
2022-08-14T02:41:02.237Z,24.00
2022-08-14T02:43:46.423Z,23.20
2022-08-14T02:46:20.321Z,20.17
2022-08-14T02:49:02.628Z,22.45
2022-08-14T02:51:35.004Z,21.60
2022-08-14T02:54:07.028Z,23.13
2022-08-14T02:57:15.753Z,21.75
2022-08-14T02:59:33.659Z,20.92
2022-08-14T03:02:04.785Z,20.83
2022-08-14T03:04:34.924Z,18.73
2022-08-14T03:07:07.823Z,16.17
2022-08-14T03:10:25.983Z,15.88
2022-08-14T03:12:32.802Z,16.52
2022-08-14T03:15:05.889Z,16.33
2022-08-14T03:17:40.771Z,15.00
2022-08-14T03:20:25.504Z,16.10
2022-08-14T03:22:55.740Z,15.40
2022-08-14T03:25:24.836Z,14.77
2022-08-14T03:27:58.420Z,16.38
2022-08-14T03:30:38.970Z,16.65
2022-08-14T03:33:11.337Z,15.67
2022-08-14T03:35:59.841Z,14.40
2022-08-14T03:39:16.002Z,15.60
2022-08-14T03:41:25.366Z,15.77
2022-08-14T03:44:01.570Z,15.88
2022-08-14T03:46:54.721Z,15.30
2022-08-14T03:49:28.312Z,15.52
2022-08-14T03:52:00.452Z,16.90
2022-08-14T03:54:33.400Z,15.65
2022-08-14T03:57:03.602Z,15.25
2022-08-14T03:59:35.514Z,14.75
2022-08-14T04:02:31.838Z,14.18
2022-08-14T04:04:55.345Z,14.82
2022-08-14T04:07:39.574Z,14.40
2022-08-14T04:10:26.232Z,13.18
2022-08-14T04:13:03.480Z,13.80
2022-08-14T04:18:25.004Z,13.40
2022-08-14T04:20:55.796Z,13.32
2022-08-14T04:23:29.419Z,13.77
2022-08-14T04:26:04.016Z,13.38
2022-08-14T04:29:07.408Z,12.60
2022-08-14T04:33:01.025Z,13.07
2022-08-14T04:34:20.655Z,12.43
2022-08-14T04:37:07.484Z,13.13
2022-08-14T04:39:57.324Z,12.50
2022-08-14T04:42:47.365Z,12.15
2022-08-14T04:45:23.283Z,11.60
2022-08-14T04:48:10.058Z,12.40
2022-08-14T04:50:44.891Z,12.38
2022-08-14T04:53:16.756Z,12.88
2022-08-14T04:55:51.640Z,12.25
2022-08-14T04:58:32.807Z,11.48
2022-08-14T05:01:12.769Z,12.23
2022-08-14T05:03:49.442Z,12.68
2022-08-14T05:06:37.891Z,12.43
2022-08-14T05:09:13.903Z,11.85
2022-08-14T05:11:44.274Z,11.48
2022-08-14T05:14:16.874Z,11.60
2022-08-14T05:17:03.466Z,11.23
2022-08-14T05:19:36.486Z,11.68
2022-08-14T05:24:48.629Z,10.80
2022-08-14T05:27:23.194Z,11.55
2022-08-14T05:29:56.587Z,11.48
2022-08-14T05:32:28.142Z,11.15
2022-08-14T05:35:01.765Z,10.73
2022-08-14T05:37:32.898Z,11.40
2022-08-14T05:40:02.784Z,11.10
2022-08-14T05:42:34.286Z,10.80
2022-08-14T05:45:11.009Z,10.65
2022-08-14T05:47:41.959Z,10.38
2022-08-14T05:50:17.527Z,10.80
2022-08-14T05:52:51.014Z,8.93
2022-08-14T05:55:22.219Z,10.82
2022-08-14T05:57:59.433Z,10.13
2022-08-14T06:00:38.772Z,9.90
2022-08-14T06:03:11.146Z,9.70
2022-08-14T06:05:43.321Z,10.32
2022-08-14T06:08:31.327Z,9.40
2022-08-14T06:11:08.328Z,9.70
2022-08-14T06:13:41.095Z,9.88
2022-08-14T06:16:18.224Z,10.68
2022-08-14T06:18:52.533Z,11.27
2022-08-14T06:21:26.031Z,10.50
2022-08-14T06:23:55.201Z,10.27
2022-08-14T06:26:30.139Z,9.88
2022-08-14T06:29:00.025Z,10.00
2022-08-14T06:31:29.238Z,9.80
2022-08-14T06:35:04.694Z,10.65
2022-08-14T06:36:49.962Z,10.40
2022-08-14T06:39:36.351Z,9.90
2022-08-14T06:42:07.545Z,10.40
2022-08-14T06:44:57.561Z,9.70
2022-08-14T06:47:27.785Z,9.93
2022-08-14T06:49:58.463Z,10.07
2022-08-14T06:52:33.136Z,10.43
2022-08-14T06:55:02.667Z,10.77
2022-08-14T06:57:38.461Z,9.98
2022-08-14T07:00:22.256Z,9.15
2022-08-14T07:03:09.585Z,9.70
2022-08-14T07:05:57.722Z,8.77
2022-08-14T07:08:31.985Z,8.60
2022-08-14T07:11:03.800Z,10.65
2022-08-14T07:13:33.298Z,7.00
2022-08-14T07:16:05.535Z,6.95
2022-08-14T07:18:37.074Z,5.80
2022-08-14T07:21:10.942Z,5.50
2022-08-14T07:23:44.269Z,5.40
2022-08-14T07:26:14.753Z,5.25
2022-08-14T07:28:44.280Z,5.78
2022-08-14T07:31:16.382Z,5.55
2022-08-14T07:33:50.238Z,5.53
2022-08-14T07:36:27.380Z,5.20
2022-08-14T07:39:12.230Z,5.35
2022-08-14T07:41:43.963Z,5.28
2022-08-14T07:44:32.226Z,5.80
2022-08-14T07:47:03.753Z,6.00
2022-08-14T07:49:36.161Z,5.95
2022-08-14T07:52:06.089Z,5.90
2022-08-14T07:54:39.438Z,5.47
2022-08-14T07:57:12.531Z,5.80
2022-08-14T07:59:44.684Z,5.32
2022-08-14T08:02:20.387Z,5.50
2022-08-14T08:04:54.914Z,4.50
2022-08-14T08:07:30.125Z,4.60
2022-08-14T08:10:46.161Z,4.53
2022-08-14T08:13:24.054Z,4.63
2022-08-14T08:15:56.205Z,4.30
2022-08-14T08:18:29.504Z,4.40
2022-08-14T08:21:00.483Z,4.38
2022-08-14T08:23:43.616Z,4.82
2022-08-14T08:26:23.327Z,5.50
2022-08-14T08:28:58.918Z,5.47
2022-08-14T08:31:32.918Z,5.88
2022-08-14T08:34:14.345Z,5.95
2022-08-14T08:36:47.705Z,5.47
2022-08-14T08:39:22.091Z,5.90
2022-08-14T08:41:54.317Z,5.15
2022-08-14T08:47:05.553Z,4.95
2022-08-14T08:49:48.310Z,5.00
2022-08-14T08:52:25.604Z,4.50
2022-08-14T08:55:00.808Z,4.70
2022-08-14T08:57:38.523Z,5.10
2022-08-14T09:00:24.594Z,4.50
2022-08-14T09:02:57.234Z,4.70
2022-08-14T09:05:28.435Z,4.70
2022-08-14T09:08:30.874Z,4.97
2022-08-14T09:11:00.737Z,4.57
2022-08-14T09:13:33.155Z,4.70
2022-08-14T09:16:18.385Z,4.20
2022-08-14T09:18:48.847Z,4.70
2022-08-14T09:21:18.114Z,4.60
2022-08-14T09:24:26.158Z,4.78
2022-08-14T09:26:41.785Z,4.07
2022-08-14T09:29:14.019Z,4.63
2022-08-14T09:31:52.808Z,4.63
2022-08-14T09:34:39.040Z,4.45
2022-08-14T09:37:36.913Z,5.15
2022-08-14T09:40:20.763Z,4.47
2022-08-14T09:43:04.763Z,4.78
2022-08-14T09:45:53.315Z,4.47
2022-08-14T09:48:30.843Z,4.50
2022-08-14T09:54:17.726Z,5.40
2022-08-14T09:56:31.763Z,5.40
2022-08-14T09:59:17.325Z,4.70
2022-08-14T10:01:52.724Z,4.68
2022-08-14T10:04:34.911Z,4.70
2022-08-14T10:07:09.793Z,4.50
2022-08-14T10:09:59.687Z,4.35
2022-08-14T10:12:44.848Z,4.18
2022-08-14T10:15:22.478Z,4.45
2022-08-14T10:18:07.861Z,4.40
2022-08-14T10:20:44.966Z,4.72
2022-08-14T10:23:23.202Z,4.65
2022-08-14T10:25:55.116Z,4.80
2022-08-14T10:28:29.427Z,4.65
2022-08-14T10:31:25.811Z,4.55
2022-08-14T10:34:12.923Z,4.68
2022-08-14T10:36:48.055Z,3.90
2022-08-14T10:39:21.369Z,4.60
2022-08-14T10:41:54.076Z,4.72
2022-08-14T10:44:29.673Z,4.80
2022-08-14T10:47:39.555Z,4.70
2022-08-14T10:50:01.619Z,4.40
2022-08-14T10:52:35.880Z,4.57
2022-08-14T10:55:13.724Z,4.45
2022-08-14T10:57:53.278Z,4.60
2022-08-14T11:00:30.036Z,4.70
2022-08-14T11:03:09.383Z,4.45
2022-08-14T11:05:48.422Z,5.05
2022-08-14T11:08:19.778Z,4.30
2022-08-14T11:13:24.513Z,4.47
2022-08-14T11:15:55.729Z,4.70
2022-08-14T11:18:35.916Z,4.45
2022-08-14T11:21:11.356Z,5.03
2022-08-14T11:23:44.170Z,4.35
2022-08-14T11:26:18.771Z,4.50
2022-08-14T11:28:50.890Z,4.68
2022-08-14T11:31:22.961Z,4.70
2022-08-14T11:33:57.826Z,4.43
2022-08-14T11:36:35.361Z,4.47
2022-08-14T11:39:33.578Z,4.40
2022-08-14T11:42:07.719Z,4.22
2022-08-14T11:44:56.749Z,3.85
2022-08-14T11:47:35.627Z,4.35
2022-08-14T11:50:34.168Z,4.30
2022-08-14T11:53:21.259Z,4.35
2022-08-14T11:55:57.535Z,4.10
2022-08-14T11:58:30.935Z,4.68
2022-08-14T12:01:03.914Z,4.28
2022-08-14T12:03:51.252Z,4.05
2022-08-14T12:06:29.639Z,3.97
2022-08-14T12:09:14.723Z,3.90
2022-08-14T12:11:51.479Z,4.18
2022-08-14T12:14:30.581Z,3.80
2022-08-14T12:17:11.946Z,3.90
2022-08-14T12:19:50.611Z,3.47
2022-08-14T12:22:34.765Z,3.78
2022-08-14T12:25:11.801Z,3.50
2022-08-14T12:27:51.993Z,3.35
2022-08-14T12:30:40.164Z,4.07
2022-08-14T12:33:30.583Z,6.05
2022-08-14T12:36:05.541Z,4.28
2022-08-14T12:38:40.926Z,4.28
2022-08-14T12:41:21.267Z,5.22
2022-08-14T12:43:53.893Z,4.70
2022-08-14T12:46:28.548Z,4.60
2022-08-14T12:49:02.536Z,4.80
2022-08-14T12:57:42.580Z,4.43
2022-08-14T13:00:23.188Z,4.30
2022-08-14T13:02:56.777Z,5.30
2022-08-14T13:05:29.763Z,4.50
2022-08-14T13:08:01.223Z,4.50
2022-08-14T13:10:47.673Z,4.72
2022-08-14T13:13:25.997Z,4.43
2022-08-14T13:15:57.599Z,4.47
2022-08-14T13:18:28.982Z,4.40
2022-08-14T13:21:01.820Z,4.60
2022-08-14T13:23:36.412Z,4.53
2022-08-14T13:26:08.739Z,4.25
2022-08-14T13:29:02.527Z,4.65
2022-08-14T13:31:36.389Z,4.60
2022-08-14T13:34:06.078Z,5.35
2022-08-14T13:36:54.757Z,4.68
2022-08-14T13:39:29.767Z,20.77
2022-08-14T13:42:01.131Z,9.77
2022-08-14T13:44:35.794Z,7.65
2022-08-14T13:47:06.157Z,6.57
2022-08-14T13:49:37.087Z,5.22
2022-08-14T13:52:48.086Z,5.40
2022-08-14T13:55:03.960Z,5.30
2022-08-14T13:57:35.773Z,7.15
2022-08-14T14:00:12.911Z,13.18
2022-08-14T14:02:45.788Z,5.80
2022-08-14T14:05:18.345Z,6.43
2022-08-14T14:07:51.139Z,6.97
2022-08-14T14:10:28.395Z,7.18
2022-08-14T14:12:59.550Z,5.80
2022-08-14T14:15:48.679Z,5.80
2022-08-14T14:21:06.337Z,5.28
2022-08-14T14:23:40.772Z,5.10
2022-08-14T14:26:13.924Z,5.90
2022-08-14T14:28:45.590Z,6.00
2022-08-14T14:31:21.714Z,5.80
2022-08-14T14:34:12.491Z,5.55
2022-08-14T14:36:55.599Z,5.80
2022-08-14T14:39:27.570Z,6.13
2022-08-14T14:42:04.099Z,6.78
2022-08-14T14:44:40.342Z,8.13
2022-08-14T14:47:22.654Z,7.68
2022-08-14T14:49:55.433Z,7.00
2022-08-14T14:52:27.816Z,7.07
2022-08-14T14:55:08.493Z,7.45
2022-08-14T14:57:38.287Z,6.22
2022-08-14T15:00:13.018Z,6.32
2022-08-14T15:02:46.684Z,6.05
2022-08-14T15:05:19.111Z,5.75
2022-08-14T15:07:49.783Z,5.82
2022-08-14T15:10:27.637Z,6.40
2022-08-14T15:13:04.194Z,5.88
2022-08-14T15:15:37.271Z,5.38
2022-08-14T15:18:36.264Z,5.38
2022-08-14T15:21:02.300Z,5.63
2022-08-14T15:23:43.677Z,5.50
2022-08-14T15:26:23.798Z,6.82
2022-08-14T15:29:05.922Z,9.23
2022-08-14T15:31:37.029Z,6.32
2022-08-14T15:37:05.433Z,6.50
2022-08-14T15:39:38.268Z,5.95
2022-08-14T15:42:15.593Z,6.10
2022-08-14T15:44:57.860Z,5.30
2022-08-14T15:47:32.353Z,5.97
2022-08-14T15:50:08.335Z,5.70
2022-08-14T15:52:41.112Z,5.70
2022-08-14T15:55:16.491Z,5.88
2022-08-14T15:57:51.726Z,5.32
2022-08-14T16:00:49.444Z,5.82
2022-08-14T16:03:27.793Z,5.97
2022-08-14T16:06:11.187Z,6.25
2022-08-14T16:08:46.325Z,7.15
2022-08-14T16:11:20.301Z,5.50
2022-08-14T16:13:49.932Z,5.72
2022-08-14T16:16:34.918Z,5.32
2022-08-14T16:19:12.086Z,5.03
2022-08-14T16:22:01.492Z,5.20
2022-08-14T16:27:38.697Z,5.78
2022-08-14T16:30:24.519Z,6.30
2022-08-14T16:32:56.391Z,6.35
2022-08-14T16:35:41.940Z,6.68
2022-08-14T16:38:45.758Z,11.70
2022-08-14T16:40:24.219Z,5.72
2022-08-14T16:41:22.847Z,8.38
2022-08-14T16:43:59.139Z,12.25
2022-08-14T16:46:35.411Z,21.50
2022-08-14T16:49:07.561Z,13.02
2022-08-14T16:51:38.755Z,12.45
2022-08-14T16:54:34.027Z,12.07
2022-08-14T16:57:19.879Z,9.48
2022-08-14T16:59:52.347Z,7.32
2022-08-14T17:02:36.452Z,6.90
2022-08-14T17:05:19.777Z,6.50
2022-08-14T17:08:42.549Z,6.10
2022-08-14T17:11:11.177Z,5.75
2022-08-14T17:13:59.169Z,5.40
2022-08-14T17:16:37.359Z,5.43
2022-08-14T17:19:14.123Z,4.85
2022-08-14T17:21:47.966Z,5.40
2022-08-14T17:24:56.308Z,4.80
2022-08-14T17:30:32.404Z,5.28
2022-08-14T17:33:03.269Z,5.30
2022-08-14T17:35:57.675Z,5.72
2022-08-14T17:38:38.354Z,5.20
2022-08-14T17:41:32.934Z,5.78
2022-08-14T17:44:21.409Z,5.65
2022-08-14T17:46:55.162Z,5.53
2022-08-14T17:49:31.938Z,5.93
2022-08-14T17:52:16.677Z,5.78
2022-08-14T17:54:52.753Z,6.03
2022-08-14T17:57:30.589Z,16.42
2022-08-14T18:00:15.044Z,19.52
2022-08-14T18:02:51.269Z,18.50
2022-08-14T18:05:23.695Z,9.82
2022-08-14T18:08:34.474Z,8.63
2022-08-14T18:11:08.239Z,6.72
2022-08-14T18:13:51.890Z,7.03
2022-08-14T18:16:24.242Z,6.20
2022-08-14T18:18:54.085Z,6.65
2022-08-14T18:21:42.736Z,12.50
2022-08-14T18:24:28.258Z,8.70
2022-08-14T18:27:08.958Z,11.50
2022-08-14T18:29:44.400Z,8.13
2022-08-14T18:32:47.276Z,7.55
2022-08-14T18:35:45.846Z,6.57
2022-08-14T18:41:37.204Z,6.82
2022-08-14T18:44:10.031Z,7.63
2022-08-14T18:47:14.951Z,8.00
2022-08-14T18:50:19.131Z,8.30
2022-08-14T18:53:04.880Z,8.40
2022-08-14T18:55:53.235Z,7.72
2022-08-14T18:58:33.968Z,9.13
2022-08-14T19:01:06.315Z,9.48
2022-08-14T19:04:01.398Z,9.07
2022-08-14T19:06:55.859Z,9.07
2022-08-14T19:09:54.527Z,11.07
2022-08-14T19:12:59.901Z,12.07
2022-08-14T19:15:34.768Z,12.13
2022-08-14T19:18:26.521Z,19.98
2022-08-14T19:21:00.468Z,12.65
2022-08-14T19:23:42.669Z,15.38
2022-08-14T19:26:37.007Z,14.95
2022-08-14T19:29:26.356Z,12.75
2022-08-14T19:32:07.549Z,13.68
2022-08-14T19:34:52.212Z,23.23
2022-08-14T19:37:48.297Z,14.77
2022-08-14T19:40:34.389Z,11.32
2022-08-14T19:43:06.537Z,12.93
2022-08-14T19:45:36.388Z,11.85
2022-08-14T19:48:14.348Z,10.93
2022-08-14T19:50:47.314Z,9.75
2022-08-14T19:53:18.416Z,10.02
2022-08-14T19:56:01.615Z,10.05
2022-08-14T19:58:54.573Z,10.52
2022-08-14T20:01:37.567Z,10.95
2022-08-14T20:04:47.339Z,9.90
2022-08-14T20:07:01.172Z,9.65
2022-08-14T20:11:12.983Z,9.45
2022-08-14T20:12:35.392Z,9.13
2022-08-14T20:15:15.532Z,9.52
2022-08-14T20:17:53.164Z,9.75
2022-08-14T20:20:31.484Z,10.45
2022-08-14T20:23:11.445Z,9.80
2022-08-14T20:25:45.189Z,10.20
2022-08-14T20:28:35.702Z,11.13
2022-08-14T20:31:17.832Z,10.13
2022-08-14T20:34:06.147Z,11.00
2022-08-14T20:36:41.128Z,10.60
2022-08-14T20:39:15.309Z,10.82
2022-08-14T20:41:51.111Z,10.57
2022-08-14T20:44:38.850Z,10.48
2022-08-14T20:47:08.249Z,10.85
2022-08-14T20:49:37.544Z,11.20
2022-08-14T20:52:19.180Z,11.27
2022-08-14T20:54:51.848Z,10.70
2022-08-14T20:57:21.838Z,10.95
2022-08-14T20:59:57.432Z,11.43
2022-08-14T21:02:46.743Z,11.23
2022-08-14T21:05:23.569Z,10.93
2022-08-14T21:08:09.910Z,10.90
2022-08-14T21:10:54.958Z,10.55
2022-08-14T21:14:19.469Z,11.10
2022-08-14T21:16:33.662Z,11.60
2022-08-14T21:19:08.585Z,11.25
2022-08-14T21:21:42.468Z,11.23
2022-08-14T21:24:39.679Z,10.88
2022-08-14T21:27:12.771Z,11.60
2022-08-14T21:29:53.456Z,10.30
2022-08-14T21:32:50.563Z,11.13
2022-08-14T21:35:29.456Z,10.93
2022-08-14T21:37:58.933Z,11.20
2022-08-14T21:40:42.081Z,10.95
2022-08-14T21:43:19.320Z,11.00
2022-08-14T21:45:53.461Z,10.57
2022-08-14T21:48:26.292Z,10.20
2022-08-14T21:51:53.361Z,10.70
2022-08-14T21:53:58.080Z,10.35
2022-08-14T21:56:38.961Z,9.18
2022-08-14T21:59:17.736Z,8.98
2022-08-14T22:02:00.171Z,7.75
2022-08-14T22:04:40.211Z,7.63
2022-08-14T22:07:19.408Z,8.18
2022-08-14T22:09:58.846Z,8.35
2022-08-14T22:12:47.190Z,7.75
2022-08-14T22:15:22.538Z,7.80
2022-08-14T22:17:54.444Z,8.65
2022-08-14T22:20:28.045Z,8.93
2022-08-14T22:23:02.962Z,9.02
2022-08-14T22:25:34.574Z,9.15
2022-08-14T22:28:16.819Z,9.35
2022-08-14T22:30:47.247Z,10.00
2022-08-14T22:33:26.429Z,9.40
2022-08-14T22:36:00.861Z,9.48
2022-08-14T22:38:36.159Z,8.85
2022-08-14T22:41:26.178Z,9.43
2022-08-14T22:44:01.534Z,9.90
2022-08-14T22:46:31.015Z,9.00
2022-08-14T22:49:15.433Z,8.75
2022-08-14T22:54:51.277Z,8.70
2022-08-14T22:57:15.718Z,9.05
2022-08-14T22:59:44.969Z,9.30
2022-08-14T23:02:22.148Z,8.40
2022-08-14T23:05:02.894Z,9.80
2022-08-14T23:09:00.056Z,10.32
2022-08-14T23:10:32.018Z,14.57
2022-08-14T23:13:05.490Z,15.43
2022-08-14T23:15:37.603Z,15.25
2022-08-14T23:18:13.234Z,15.93
2022-08-14T23:20:47.766Z,16.00
2022-08-14T23:23:22.351Z,16.90
2022-08-14T23:26:00.594Z,17.15
2022-08-14T23:28:56.743Z,16.33
2022-08-14T23:31:36.063Z,17.25
2022-08-14T23:34:09.050Z,17.60
2022-08-14T23:36:54.040Z,18.10
2022-08-14T23:39:30.082Z,19.27
2022-08-14T23:42:08.435Z,20.77
2022-08-14T23:44:39.171Z,21.58
2022-08-14T23:47:26.023Z,21.92
2022-08-14T23:50:00.694Z,18.17
2022-08-14T23:52:50.499Z,19.52
2022-08-14T23:55:29.389Z,18.63
2022-08-14T23:58:01.225Z,18.83
